sensor_id;sensor_type;location;lat;lon;timestamp;P1;durP1;ratioP1;P2;durP2;ratioP2
35576;SDS011;21680;52.400;16.920;2022-10-16T00:01:07;30.50;;;16.80;;
35576;SDS011;21680;52.400;16.920;2022-10-16T00:03:36;34.80;;;18.90;;
35576;SDS011;21680;52.400;16.920;2022-10-16T00:06:02;27.80;;;15.80;;
35576;SDS011;21680;52.400;16.920;2022-10-16T00:08:28;28.50;;;16.10;;
35576;SDS011;21680;52.400;16.920;2022-10-16T00:10:58;24.30;;;15.50;;
35576;SDS011;21680;52.400;16.920;2022-10-16T00:13:25;24.20;;;14.70;;
35576;SDS011;21680;52.400;16.920;2022-10-16T00:15:50;27.00;;;15.80;;
35576;SDS011;21680;52.400;16.920;2022-10-16T00:18:16;29.30;;;15.90;;
35576;SDS011;21680;52.400;16.920;2022-10-16T00:20:42;28.00;;;17.30;;
35576;SDS011;21680;52.400;16.920;2022-10-16T00:23:07;27.90;;;16.70;;
35576;SDS011;21680;52.400;16.920;2022-10-16T00:25:33;25.90;;;14.30;;
35576;SDS011;21680;52.400;16.920;2022-10-16T00:27:59;24.70;;;15.10;;
35576;SDS011;21680;52.400;16.920;2022-10-16T00:30:25;24.90;;;14.70;;
35576;SDS011;21680;52.400;16.920;2022-10-16T00:32:52;26.70;;;15.20;;
35576;SDS011;21680;52.400;16.920;2022-10-16T00:35:17;23.40;;;14.40;;
35576;SDS011;21680;52.400;16.920;2022-10-16T00:37:43;25.60;;;14.20;;
35576;SDS011;21680;52.400;16.920;2022-10-16T00:40:08;23.00;;;14.20;;
35576;SDS011;21680;52.400;16.920;2022-10-16T00:42:34;28.80;;;16.00;;
35576;SDS011;21680;52.400;16.920;2022-10-16T00:45:02;23.10;;;13.70;;
35576;SDS011;21680;52.400;16.920;2022-10-16T00:47:43;21.50;;;12.70;;
35576;SDS011;21680;52.400;16.920;2022-10-16T00:50:16;26.30;;;14.80;;
35576;SDS011;21680;52.400;16.920;2022-10-16T00:52:48;23.60;;;13.40;;
35576;SDS011;21680;52.400;16.920;2022-10-16T00:55:15;24.80;;;13.20;;
35576;SDS011;21680;52.400;16.920;2022-10-16T00:57:41;24.40;;;13.50;;
35576;SDS011;21680;52.400;16.920;2022-10-16T01:00:09;24.70;;;14.20;;
35576;SDS011;21680;52.400;16.920;2022-10-16T01:02:36;19.60;;;13.20;;
35576;SDS011;21680;52.400;16.920;2022-10-16T01:05:01;25.50;;;12.70;;
35576;SDS011;21680;52.400;16.920;2022-10-16T01:07:36;25.40;;;13.70;;
35576;SDS011;21680;52.400;16.920;2022-10-16T01:13:11;24.90;;;13.50;;
35576;SDS011;21680;52.400;16.920;2022-10-16T01:15:42;23.30;;;12.70;;
35576;SDS011;21680;52.400;16.920;2022-10-16T01:24:02;18.90;;;12.00;;
35576;SDS011;21680;52.400;16.920;2022-10-16T01:26:56;19.30;;;12.10;;
35576;SDS011;21680;52.400;16.920;2022-10-16T01:29:53;19.00;;;12.80;;
35576;SDS011;21680;52.400;16.920;2022-10-16T01:32:24;20.40;;;12.30;;
35576;SDS011;21680;52.400;16.920;2022-10-16T01:34:59;22.80;;;13.00;;
35576;SDS011;21680;52.400;16.920;2022-10-16T01:37:32;22.40;;;12.80;;
35576;SDS011;21680;52.400;16.920;2022-10-16T01:40:04;21.20;;;12.90;;
35576;SDS011;21680;52.400;16.920;2022-10-16T01:42:35;18.80;;;12.10;;
35576;SDS011;21680;52.400;16.920;2022-10-16T01:45:05;17.10;;;11.50;;
35576;SDS011;21680;52.400;16.920;2022-10-16T01:47:32;19.30;;;12.20;;
35576;SDS011;21680;52.400;16.920;2022-10-16T01:50:00;18.50;;;12.10;;
35576;SDS011;21680;52.400;16.920;2022-10-16T01:52:30;23.60;;;12.10;;
35576;SDS011;21680;52.400;16.920;2022-10-16T01:54:59;20.80;;;12.20;;
35576;SDS011;21680;52.400;16.920;2022-10-16T01:57:28;18.50;;;11.70;;
35576;SDS011;21680;52.400;16.920;2022-10-16T01:59:56;21.60;;;11.80;;
35576;SDS011;21680;52.400;16.920;2022-10-16T02:02:26;20.80;;;12.60;;
35576;SDS011;21680;52.400;16.920;2022-10-16T02:04:58;21.20;;;12.00;;
35576;SDS011;21680;52.400;16.920;2022-10-16T02:07:26;17.50;;;11.50;;
35576;SDS011;21680;52.400;16.920;2022-10-16T02:09:51;22.70;;;12.70;;
35576;SDS011;21680;52.400;16.920;2022-10-16T02:15:24;20.50;;;12.60;;
35576;SDS011;21680;52.400;16.920;2022-10-16T02:17:49;20.70;;;12.60;;
35576;SDS011;21680;52.400;16.920;2022-10-16T02:20:14;18.20;;;11.90;;
35576;SDS011;21680;52.400;16.920;2022-10-16T02:22:41;19.10;;;11.70;;
35576;SDS011;21680;52.400;16.920;2022-10-16T02:25:25;16.80;;;11.80;;
35576;SDS011;21680;52.400;16.920;2022-10-16T02:27:57;17.50;;;11.60;;
35576;SDS011;21680;52.400;16.920;2022-10-16T02:30:33;18.30;;;12.10;;
35576;SDS011;21680;52.400;16.920;2022-10-16T02:33:02;17.30;;;10.90;;
35576;SDS011;21680;52.400;16.920;2022-10-16T02:35:30;19.60;;;11.50;;
35576;SDS011;21680;52.400;16.920;2022-10-16T02:37:56;19.60;;;12.60;;
35576;SDS011;21680;52.400;16.920;2022-10-16T02:40:23;20.50;;;12.50;;
35576;SDS011;21680;52.400;16.920;2022-10-16T02:42:52;19.20;;;11.80;;
35576;SDS011;21680;52.400;16.920;2022-10-16T02:45:19;22.30;;;11.60;;
35576;SDS011;21680;52.400;16.920;2022-10-16T02:47:45;21.00;;;13.20;;
35576;SDS011;21680;52.400;16.920;2022-10-16T02:50:10;19.00;;;12.40;;
35576;SDS011;21680;52.400;16.920;2022-10-16T02:52:35;18.90;;;12.40;;
35576;SDS011;21680;52.400;16.920;2022-10-16T02:55:00;18.00;;;11.80;;
35576;SDS011;21680;52.400;16.920;2022-10-16T02:57:26;19.30;;;13.00;;
35576;SDS011;21680;52.400;16.920;2022-10-16T02:59:51;18.30;;;12.70;;
35576;SDS011;21680;52.400;16.920;2022-10-16T03:02:16;21.00;;;13.20;;
35576;SDS011;21680;52.400;16.920;2022-10-16T03:04:42;19.80;;;12.10;;
35576;SDS011;21680;52.400;16.920;2022-10-16T03:07:07;19.50;;;12.20;;
35576;SDS011;21680;52.400;16.920;2022-10-16T03:09:32;19.40;;;13.10;;
35576;SDS011;21680;52.400;16.920;2022-10-16T03:11:58;20.00;;;12.70;;
35576;SDS011;21680;52.400;16.920;2022-10-16T03:14:23;24.90;;;14.10;;
35576;SDS011;21680;52.400;16.920;2022-10-16T03:16:49;22.30;;;13.80;;
35576;SDS011;21680;52.400;16.920;2022-10-16T03:19:15;23.90;;;15.30;;
35576;SDS011;21680;52.400;16.920;2022-10-16T03:21:41;22.70;;;13.90;;
35576;SDS011;21680;52.400;16.920;2022-10-16T03:24:06;25.00;;;13.20;;
35576;SDS011;21680;52.400;16.920;2022-10-16T03:26:31;24.30;;;13.90;;
35576;SDS011;21680;52.400;16.920;2022-10-16T03:28:57;20.20;;;13.40;;
35576;SDS011;21680;52.400;16.920;2022-10-16T03:31:22;21.10;;;13.40;;
35576;SDS011;21680;52.400;16.920;2022-10-16T03:33:47;22.80;;;13.00;;
35576;SDS011;21680;52.400;16.920;2022-10-16T03:36:12;22.20;;;13.50;;
35576;SDS011;21680;52.400;16.920;2022-10-16T03:38:37;17.60;;;12.30;;
35576;SDS011;21680;52.400;16.920;2022-10-16T03:41:03;26.90;;;14.60;;
35576;SDS011;21680;52.400;16.920;2022-10-16T03:43:29;21.30;;;13.10;;
35576;SDS011;21680;52.400;16.920;2022-10-16T03:45:54;22.10;;;13.70;;
35576;SDS011;21680;52.400;16.920;2022-10-16T03:48:20;21.50;;;13.30;;
35576;SDS011;21680;52.400;16.920;2022-10-16T03:50:45;23.60;;;14.00;;
35576;SDS011;21680;52.400;16.920;2022-10-16T03:53:12;24.80;;;14.80;;
35576;SDS011;21680;52.400;16.920;2022-10-16T03:55:38;23.80;;;13.10;;
35576;SDS011;21680;52.400;16.920;2022-10-16T03:58:03;22.10;;;12.60;;
35576;SDS011;21680;52.400;16.920;2022-10-16T04:00:28;24.30;;;14.90;;
35576;SDS011;21680;52.400;16.920;2022-10-16T04:02:53;25.50;;;14.40;;
35576;SDS011;21680;52.400;16.920;2022-10-16T04:05:18;20.10;;;12.30;;
35576;SDS011;21680;52.400;16.920;2022-10-16T04:07:44;25.20;;;14.50;;
35576;SDS011;21680;52.400;16.920;2022-10-16T04:10:10;20.30;;;14.10;;
35576;SDS011;21680;52.400;16.920;2022-10-16T04:12:36;24.70;;;14.30;;
35576;SDS011;21680;52.400;16.920;2022-10-16T04:15:01;22.30;;;13.30;;
35576;SDS011;21680;52.400;16.920;2022-10-16T04:17:27;23.50;;;14.00;;
35576;SDS011;21680;52.400;16.920;2022-10-16T04:19:52;23.50;;;14.00;;
35576;SDS011;21680;52.400;16.920;2022-10-16T04:22:17;19.80;;;13.20;;
35576;SDS011;21680;52.400;16.920;2022-10-16T04:24:43;21.50;;;13.40;;
35576;SDS011;21680;52.400;16.920;2022-10-16T04:27:08;21.00;;;13.90;;
35576;SDS011;21680;52.400;16.920;2022-10-16T04:29:33;23.20;;;13.50;;
35576;SDS011;21680;52.400;16.920;2022-10-16T04:31:58;20.20;;;13.00;;
35576;SDS011;21680;52.400;16.920;2022-10-16T04:34:23;27.00;;;13.90;;
35576;SDS011;21680;52.400;16.920;2022-10-16T04:36:49;25.30;;;15.50;;
35576;SDS011;21680;52.400;16.920;2022-10-16T04:39:14;23.90;;;14.80;;
35576;SDS011;21680;52.400;16.920;2022-10-16T04:41:40;20.90;;;13.20;;
35576;SDS011;21680;52.400;16.920;2022-10-16T04:44:05;20.90;;;14.60;;
35576;SDS011;21680;52.400;16.920;2022-10-16T04:46:30;25.40;;;13.80;;
35576;SDS011;21680;52.400;16.920;2022-10-16T04:48:55;26.60;;;15.30;;
35576;SDS011;21680;52.400;16.920;2022-10-16T04:51:21;24.60;;;14.50;;
35576;SDS011;21680;52.400;16.920;2022-10-16T04:53:46;22.70;;;14.90;;
35576;SDS011;21680;52.400;16.920;2022-10-16T04:56:11;25.70;;;14.70;;
35576;SDS011;21680;52.400;16.920;2022-10-16T04:58:36;22.00;;;14.10;;
35576;SDS011;21680;52.400;16.920;2022-10-16T05:01:01;22.60;;;14.30;;
35576;SDS011;21680;52.400;16.920;2022-10-16T05:03:27;24.80;;;14.40;;
35576;SDS011;21680;52.400;16.920;2022-10-16T05:05:52;27.30;;;16.20;;
35576;SDS011;21680;52.400;16.920;2022-10-16T05:08:17;19.60;;;14.70;;
35576;SDS011;21680;52.400;16.920;2022-10-16T05:10:43;23.40;;;15.10;;
35576;SDS011;21680;52.400;16.920;2022-10-16T05:13:09;24.60;;;14.10;;
35576;SDS011;21680;52.400;16.920;2022-10-16T05:15:35;21.60;;;13.90;;
35576;SDS011;21680;52.400;16.920;2022-10-16T05:18:00;22.60;;;14.20;;
35576;SDS011;21680;52.400;16.920;2022-10-16T05:20:26;22.10;;;14.90;;
35576;SDS011;21680;52.400;16.920;2022-10-16T05:22:51;23.50;;;14.90;;
35576;SDS011;21680;52.400;16.920;2022-10-16T05:25:16;23.90;;;15.60;;
35576;SDS011;21680;52.400;16.920;2022-10-16T05:27:43;20.80;;;13.30;;
35576;SDS011;21680;52.400;16.920;2022-10-16T05:30:12;22.10;;;14.80;;
35576;SDS011;21680;52.400;16.920;2022-10-16T05:32:37;21.20;;;13.90;;
35576;SDS011;21680;52.400;16.920;2022-10-16T05:35:02;24.60;;;13.30;;
35576;SDS011;21680;52.400;16.920;2022-10-16T05:37:28;24.20;;;14.40;;
35576;SDS011;21680;52.400;16.920;2022-10-16T05:39:53;23.40;;;13.40;;
35576;SDS011;21680;52.400;16.920;2022-10-16T05:42:18;23.40;;;14.30;;
35576;SDS011;21680;52.400;16.920;2022-10-16T05:44:43;21.80;;;13.80;;
35576;SDS011;21680;52.400;16.920;2022-10-16T05:47:09;22.00;;;14.50;;
35576;SDS011;21680;52.400;16.920;2022-10-16T05:49:35;30.60;;;16.30;;
35576;SDS011;21680;52.400;16.920;2022-10-16T05:52:00;24.50;;;14.00;;
35576;SDS011;21680;52.400;16.920;2022-10-16T05:54:26;33.50;;;15.10;;
35576;SDS011;21680;52.400;16.920;2022-10-16T05:56:51;22.20;;;14.60;;
35576;SDS011;21680;52.400;16.920;2022-10-16T05:59:16;24.70;;;15.60;;
35576;SDS011;21680;52.400;16.920;2022-10-16T06:01:42;23.80;;;14.30;;
35576;SDS011;21680;52.400;16.920;2022-10-16T06:04:07;21.50;;;14.70;;
35576;SDS011;21680;52.400;16.920;2022-10-16T06:06:33;22.50;;;14.30;;
35576;SDS011;21680;52.400;16.920;2022-10-16T06:08:58;21.00;;;14.00;;
35576;SDS011;21680;52.400;16.920;2022-10-16T06:11:25;21.00;;;13.40;;
35576;SDS011;21680;52.400;16.920;2022-10-16T06:13:54;24.10;;;14.50;;
35576;SDS011;21680;52.400;16.920;2022-10-16T06:16:25;22.70;;;14.10;;
35576;SDS011;21680;52.400;16.920;2022-10-16T06:18:54;23.10;;;13.90;;
35576;SDS011;21680;52.400;16.920;2022-10-16T06:21:21;25.10;;;14.80;;
35576;SDS011;21680;52.400;16.920;2022-10-16T06:23:49;21.10;;;14.20;;
35576;SDS011;21680;52.400;16.920;2022-10-16T06:26:16;22.00;;;14.00;;
35576;SDS011;21680;52.400;16.920;2022-10-16T06:28:44;21.60;;;14.50;;
35576;SDS011;21680;52.400;16.920;2022-10-16T06:31:09;30.40;;;15.80;;
35576;SDS011;21680;52.400;16.920;2022-10-16T06:33:36;21.00;;;13.60;;
35576;SDS011;21680;52.400;16.920;2022-10-16T06:36:09;25.10;;;14.70;;
35576;SDS011;21680;52.400;16.920;2022-10-16T06:38:36;22.50;;;14.80;;
35576;SDS011;21680;52.400;16.920;2022-10-16T06:41:02;27.30;;;15.50;;
35576;SDS011;21680;52.400;16.920;2022-10-16T06:43:28;24.30;;;15.80;;
35576;SDS011;21680;52.400;16.920;2022-10-16T06:45:57;24.00;;;15.40;;
35576;SDS011;21680;52.400;16.920;2022-10-16T06:48:23;21.50;;;14.50;;
35576;SDS011;21680;52.400;16.920;2022-10-16T06:53:25;21.40;;;15.60;;
35576;SDS011;21680;52.400;16.920;2022-10-16T06:55:52;21.90;;;16.20;;
35576;SDS011;21680;52.400;16.920;2022-10-16T06:58:17;21.50;;;15.40;;
35576;SDS011;21680;52.400;16.920;2022-10-16T07:00:43;23.60;;;16.30;;
35576;SDS011;21680;52.400;16.920;2022-10-16T07:03:08;25.70;;;15.30;;
35576;SDS011;21680;52.400;16.920;2022-10-16T07:05:37;22.30;;;13.90;;
35576;SDS011;21680;52.400;16.920;2022-10-16T07:08:06;19.20;;;13.00;;
35576;SDS011;21680;52.400;16.920;2022-10-16T07:10:31;20.20;;;14.70;;
35576;SDS011;21680;52.400;16.920;2022-10-16T07:12:57;19.60;;;14.70;;
35576;SDS011;21680;52.400;16.920;2022-10-16T07:15:22;24.20;;;14.90;;
35576;SDS011;21680;52.400;16.920;2022-10-16T07:17:49;23.20;;;14.70;;
35576;SDS011;21680;52.400;16.920;2022-10-16T07:20:14;21.40;;;14.40;;
35576;SDS011;21680;52.400;16.920;2022-10-16T07:22:39;19.20;;;14.10;;
35576;SDS011;21680;52.400;16.920;2022-10-16T07:25:05;22.80;;;14.60;;
35576;SDS011;21680;52.400;16.920;2022-10-16T07:27:31;20.90;;;14.30;;
35576;SDS011;21680;52.400;16.920;2022-10-16T07:29:56;19.10;;;14.60;;
35576;SDS011;21680;52.400;16.920;2022-10-16T07:32:21;18.50;;;13.40;;
35576;SDS011;21680;52.400;16.920;2022-10-16T07:34:47;20.40;;;13.70;;
35576;SDS011;21680;52.400;16.920;2022-10-16T07:37:12;23.60;;;12.90;;
35576;SDS011;21680;52.400;16.920;2022-10-16T07:39:37;20.70;;;13.30;;
35576;SDS011;21680;52.400;16.920;2022-10-16T07:42:02;17.40;;;12.40;;
35576;SDS011;21680;52.400;16.920;2022-10-16T07:44:27;19.10;;;12.10;;
35576;SDS011;21680;52.400;16.920;2022-10-16T07:46:53;19.70;;;12.00;;
35576;SDS011;21680;52.400;16.920;2022-10-16T07:49:18;15.90;;;11.20;;
35576;SDS011;21680;52.400;16.920;2022-10-16T07:51:44;17.40;;;11.80;;
35576;SDS011;21680;52.400;16.920;2022-10-16T07:54:09;26.00;;;12.20;;
35576;SDS011;21680;52.400;16.920;2022-10-16T07:56:35;16.10;;;11.30;;
35576;SDS011;21680;52.400;16.920;2022-10-16T07:59:00;20.20;;;12.20;;
35576;SDS011;21680;52.400;16.920;2022-10-16T08:01:25;19.30;;;12.70;;
35576;SDS011;21680;52.400;16.920;2022-10-16T08:03:51;20.20;;;12.00;;
35576;SDS011;21680;52.400;16.920;2022-10-16T08:06:17;16.60;;;11.70;;
35576;SDS011;21680;52.400;16.920;2022-10-16T08:08:44;19.90;;;12.40;;
35576;SDS011;21680;52.400;16.920;2022-10-16T08:11:09;16.00;;;11.90;;
35576;SDS011;21680;52.400;16.920;2022-10-16T08:13:35;19.40;;;12.30;;
35576;SDS011;21680;52.400;16.920;2022-10-16T08:16:00;19.00;;;12.20;;
35576;SDS011;21680;52.400;16.920;2022-10-16T08:18:26;22.10;;;12.00;;
35576;SDS011;21680;52.400;16.920;2022-10-16T08:20:55;17.80;;;11.60;;
35576;SDS011;21680;52.400;16.920;2022-10-16T08:23:22;22.10;;;12.90;;
35576;SDS011;21680;52.400;16.920;2022-10-16T08:25:48;17.20;;;12.00;;
35576;SDS011;21680;52.400;16.920;2022-10-16T08:28:13;17.50;;;12.30;;
35576;SDS011;21680;52.400;16.920;2022-10-16T08:30:38;22.70;;;13.20;;
35576;SDS011;21680;52.400;16.920;2022-10-16T08:33:03;21.30;;;12.90;;
35576;SDS011;21680;52.400;16.920;2022-10-16T08:35:29;16.60;;;11.70;;
35576;SDS011;21680;52.400;16.920;2022-10-16T08:37:54;17.70;;;12.50;;
35576;SDS011;21680;52.400;16.920;2022-10-16T08:40:23;15.40;;;11.70;;
35576;SDS011;21680;52.400;16.920;2022-10-16T08:42:57;20.20;;;13.60;;
35576;SDS011;21680;52.400;16.920;2022-10-16T08:45:41;15.80;;;10.70;;
35576;SDS011;21680;52.400;16.920;2022-10-16T08:48:31;19.30;;;10.60;;
35576;SDS011;21680;52.400;16.920;2022-10-16T08:51:08;18.00;;;11.70;;
35576;SDS011;21680;52.400;16.920;2022-10-16T08:53:54;16.70;;;11.00;;
35576;SDS011;21680;52.400;16.920;2022-10-16T08:56:22;11.20;;;8.80;;
35576;SDS011;21680;52.400;16.920;2022-10-16T08:58:48;14.60;;;9.70;;
35576;SDS011;21680;52.400;16.920;2022-10-16T09:01:16;11.40;;;8.80;;
35576;SDS011;21680;52.400;16.920;2022-10-16T09:03:51;13.20;;;9.50;;
35576;SDS011;21680;52.400;16.920;2022-10-16T09:06:22;12.60;;;8.80;;
35576;SDS011;21680;52.400;16.920;2022-10-16T09:17:34;12.00;;;8.20;;
35576;SDS011;21680;52.400;16.920;2022-10-16T09:23:40;10.80;;;6.50;;
35576;SDS011;21680;52.400;16.920;2022-10-16T09:25:56;13.00;;;7.20;;
35576;SDS011;21680;52.400;16.920;2022-10-16T09:28:23;9.10;;;6.80;;
35576;SDS011;21680;52.400;16.920;2022-10-16T09:30:49;9.60;;;6.80;;
35576;SDS011;21680;52.400;16.920;2022-10-16T09:33:17;8.80;;;6.50;;
35576;SDS011;21680;52.400;16.920;2022-10-16T09:35:45;9.90;;;6.90;;
35576;SDS011;21680;52.400;16.920;2022-10-16T09:38:27;9.20;;;6.70;;
35576;SDS011;21680;52.400;16.920;2022-10-16T09:40:57;9.10;;;6.90;;
35576;SDS011;21680;52.400;16.920;2022-10-16T09:43:33;12.90;;;7.00;;
35576;SDS011;21680;52.400;16.920;2022-10-16T09:46:08;9.50;;;6.90;;
35576;SDS011;21680;52.400;16.920;2022-10-16T09:48:49;8.50;;;7.10;;
35576;SDS011;21680;52.400;16.920;2022-10-16T09:51:21;9.60;;;6.40;;
35576;SDS011;21680;52.400;16.920;2022-10-16T09:56:33;9.10;;;7.00;;
35576;SDS011;21680;52.400;16.920;2022-10-16T09:59:12;9.30;;;6.80;;
35576;SDS011;21680;52.400;16.920;2022-10-16T10:04:11;8.60;;;6.40;;
35576;SDS011;21680;52.400;16.920;2022-10-16T10:06:40;8.20;;;6.40;;
35576;SDS011;21680;52.400;16.920;2022-10-16T10:11:59;11.10;;;5.40;;
35576;SDS011;21680;52.400;16.920;2022-10-16T10:17:14;9.50;;;5.70;;
35576;SDS011;21680;52.400;16.920;2022-10-16T10:19:44;7.80;;;5.60;;
35576;SDS011;21680;52.400;16.920;2022-10-16T10:22:16;9.10;;;6.10;;
35576;SDS011;21680;52.400;16.920;2022-10-16T10:24:54;15.90;;;6.50;;
35576;SDS011;21680;52.400;16.920;2022-10-16T10:30:41;8.50;;;6.50;;
35576;SDS011;21680;52.400;16.920;2022-10-16T10:33:28;9.90;;;6.10;;
35576;SDS011;21680;52.400;16.920;2022-10-16T10:36:03;6.60;;;5.10;;
35576;SDS011;21680;52.400;16.920;2022-10-16T10:38:31;6.30;;;5.00;;
35576;SDS011;21680;52.400;16.920;2022-10-16T10:49:54;8.30;;;6.20;;
35576;SDS011;21680;52.400;16.920;2022-10-16T10:52:38;9.20;;;5.50;;
35576;SDS011;21680;52.400;16.920;2022-10-16T10:58:12;9.50;;;5.20;;
35576;SDS011;21680;52.400;16.920;2022-10-16T11:03:51;6.90;;;5.30;;
35576;SDS011;21680;52.400;16.920;2022-10-16T11:06:55;12.00;;;5.40;;
35576;SDS011;21680;52.400;16.920;2022-10-16T11:09:26;6.50;;;4.80;;
35576;SDS011;21680;52.400;16.920;2022-10-16T11:12:01;5.50;;;4.90;;
35576;SDS011;21680;52.400;16.920;2022-10-16T11:14:35;6.50;;;5.00;;
35576;SDS011;21680;52.400;16.920;2022-10-16T11:17:13;7.10;;;4.80;;
35576;SDS011;21680;52.400;16.920;2022-10-16T11:19:48;5.90;;;4.60;;
35576;SDS011;21680;52.400;16.920;2022-10-16T11:22:20;6.20;;;4.40;;
35576;SDS011;21680;52.400;16.920;2022-10-16T11:24:55;5.90;;;4.30;;
35576;SDS011;21680;52.400;16.920;2022-10-16T11:27:41;6.40;;;4.00;;
35576;SDS011;21680;52.400;16.920;2022-10-16T11:30:30;6.30;;;3.80;;
35576;SDS011;21680;52.400;16.920;2022-10-16T11:35:41;7.70;;;3.80;;
35576;SDS011;21680;52.400;16.920;2022-10-16T11:41:32;2.60;;;2.40;;
35576;SDS011;21680;52.400;16.920;2022-10-16T11:44:14;3.60;;;2.90;;
35576;SDS011;21680;52.400;16.920;2022-10-16T11:50:04;4.70;;;2.60;;
35576;SDS011;21680;52.400;16.920;2022-10-16T11:55:39;4.80;;;3.00;;
35576;SDS011;21680;52.400;16.920;2022-10-16T11:58:19;3.90;;;3.00;;
35576;SDS011;21680;52.400;16.920;2022-10-16T12:00:56;5.10;;;2.60;;
35576;SDS011;21680;52.400;16.920;2022-10-16T12:03:39;4.50;;;3.30;;
35576;SDS011;21680;52.400;16.920;2022-10-16T12:09:00;5.40;;;2.50;;
35576;SDS011;21680;52.400;16.920;2022-10-16T12:13:51;4.40;;;2.80;;
35576;SDS011;21680;52.400;16.920;2022-10-16T12:16:28;2.60;;;2.40;;
35576;SDS011;21680;52.400;16.920;2022-10-16T12:21:50;2.40;;;2.20;;
35576;SDS011;21680;52.400;16.920;2022-10-16T12:27:32;3.40;;;2.40;;
35576;SDS011;21680;52.400;16.920;2022-10-16T12:29:59;2.90;;;2.50;;
35576;SDS011;21680;52.400;16.920;2022-10-16T12:32:36;5.20;;;2.40;;
35576;SDS011;21680;52.400;16.920;2022-10-16T12:35:05;3.00;;;2.50;;
35576;SDS011;21680;52.400;16.920;2022-10-16T12:37:42;5.50;;;3.10;;
35576;SDS011;21680;52.400;16.920;2022-10-16T12:40:13;4.60;;;2.60;;
35576;SDS011;21680;52.400;16.920;2022-10-16T12:42:41;4.90;;;2.20;;
35576;SDS011;21680;52.400;16.920;2022-10-16T12:45:40;2.60;;;2.00;;
35576;SDS011;21680;52.400;16.920;2022-10-16T12:47:59;3.30;;;2.00;;
35576;SDS011;21680;52.400;16.920;2022-10-16T12:50:28;4.40;;;2.10;;
35576;SDS011;21680;52.400;16.920;2022-10-16T12:52:55;3.00;;;2.30;;
35576;SDS011;21680;52.400;16.920;2022-10-16T12:55:22;3.00;;;2.20;;
35576;SDS011;21680;52.400;16.920;2022-10-16T12:57:59;2.00;;;1.80;;
35576;SDS011;21680;52.400;16.920;2022-10-16T13:00:41;1.90;;;1.80;;
35576;SDS011;21680;52.400;16.920;2022-10-16T13:03:37;2.90;;;2.20;;
35576;SDS011;21680;52.400;16.920;2022-10-16T13:06:31;3.30;;;2.30;;
35576;SDS011;21680;52.400;16.920;2022-10-16T13:09:13;3.10;;;1.90;;
35576;SDS011;21680;52.400;16.920;2022-10-16T13:12:44;4.40;;;1.90;;
35576;SDS011;21680;52.400;16.920;2022-10-16T13:15:01;2.60;;;2.30;;
35576;SDS011;21680;52.400;16.920;2022-10-16T13:22:31;2.60;;;2.40;;
35576;SDS011;21680;52.400;16.920;2022-10-16T13:28:02;2.90;;;2.10;;
35576;SDS011;21680;52.400;16.920;2022-10-16T13:30:31;2.30;;;2.10;;
35576;SDS011;21680;52.400;16.920;2022-10-16T13:35:49;2.90;;;2.50;;
35576;SDS011;21680;52.400;16.920;2022-10-16T13:38:18;2.90;;;2.50;;
35576;SDS011;21680;52.400;16.920;2022-10-16T13:40:49;4.80;;;2.70;;
35576;SDS011;21680;52.400;16.920;2022-10-16T13:43:26;3.20;;;2.70;;
35576;SDS011;21680;52.400;16.920;2022-10-16T13:46:10;2.80;;;2.20;;
35576;SDS011;21680;52.400;16.920;2022-10-16T13:48:38;3.60;;;2.30;;
35576;SDS011;21680;52.400;16.920;2022-10-16T13:51:04;6.10;;;2.70;;
35576;SDS011;21680;52.400;16.920;2022-10-16T13:53:41;3.90;;;2.80;;
35576;SDS011;21680;52.400;16.920;2022-10-16T13:56:14;3.10;;;2.20;;
35576;SDS011;21680;52.400;16.920;2022-10-16T13:58:41;3.10;;;2.40;;
35576;SDS011;21680;52.400;16.920;2022-10-16T14:01:26;2.70;;;2.50;;
35576;SDS011;21680;52.400;16.920;2022-10-16T14:03:59;2.70;;;2.40;;
35576;SDS011;21680;52.400;16.920;2022-10-16T14:06:36;3.90;;;2.80;;
35576;SDS011;21680;52.400;16.920;2022-10-16T14:09:07;3.10;;;2.60;;
35576;SDS011;21680;52.400;16.920;2022-10-16T14:11:49;3.00;;;2.70;;
35576;SDS011;21680;52.400;16.920;2022-10-16T14:14:18;4.40;;;3.00;;
35576;SDS011;21680;52.400;16.920;2022-10-16T14:16:44;3.00;;;2.70;;
35576;SDS011;21680;52.400;16.920;2022-10-16T14:19:16;3.30;;;2.80;;
35576;SDS011;21680;52.400;16.920;2022-10-16T14:21:51;3.50;;;3.00;;
35576;SDS011;21680;52.400;16.920;2022-10-16T14:24:25;3.80;;;3.20;;
35576;SDS011;21680;52.400;16.920;2022-10-16T14:26:52;5.50;;;3.10;;
35576;SDS011;21680;52.400;16.920;2022-10-16T14:29:21;7.30;;;3.30;;
35576;SDS011;21680;52.400;16.920;2022-10-16T14:31:58;8.70;;;3.30;;
35576;SDS011;21680;52.400;16.920;2022-10-16T14:34:32;3.30;;;3.00;;
35576;SDS011;21680;52.400;16.920;2022-10-16T14:37:06;6.70;;;3.20;;
35576;SDS011;21680;52.400;16.920;2022-10-16T14:39:38;3.80;;;2.80;;
35576;SDS011;21680;52.400;16.920;2022-10-16T14:42:04;6.10;;;2.70;;
35576;SDS011;21680;52.400;16.920;2022-10-16T14:44:40;5.10;;;3.10;;
35576;SDS011;21680;52.400;16.920;2022-10-16T14:47:09;6.50;;;3.40;;
35576;SDS011;21680;52.400;16.920;2022-10-16T14:49:41;3.60;;;3.10;;
35576;SDS011;21680;52.400;16.920;2022-10-16T14:52:11;3.60;;;3.20;;
35576;SDS011;21680;52.400;16.920;2022-10-16T14:54:37;4.30;;;3.00;;
35576;SDS011;21680;52.400;16.920;2022-10-16T14:57:03;4.70;;;3.10;;
35576;SDS011;21680;52.400;16.920;2022-10-16T14:59:35;10.20;;;2.70;;
35576;SDS011;21680;52.400;16.920;2022-10-16T15:02:15;3.20;;;2.50;;
35576;SDS011;21680;52.400;16.920;2022-10-16T15:05:18;3.90;;;2.90;;
35576;SDS011;21680;52.400;16.920;2022-10-16T15:07:44;3.40;;;2.70;;
35576;SDS011;21680;52.400;16.920;2022-10-16T15:10:10;3.10;;;2.80;;
35576;SDS011;21680;52.400;16.920;2022-10-16T15:12:37;3.10;;;2.50;;
35576;SDS011;21680;52.400;16.920;2022-10-16T15:15:09;6.20;;;2.50;;
35576;SDS011;21680;52.400;16.920;2022-10-16T15:17:40;3.40;;;2.20;;
35576;SDS011;21680;52.400;16.920;2022-10-16T15:20:05;3.70;;;2.10;;
35576;SDS011;21680;52.400;16.920;2022-10-16T15:22:31;2.60;;;2.30;;
35576;SDS011;21680;52.400;16.920;2022-10-16T15:24:56;3.50;;;2.70;;
35576;SDS011;21680;52.400;16.920;2022-10-16T15:27:21;5.80;;;2.70;;
35576;SDS011;21680;52.400;16.920;2022-10-16T15:29:50;4.30;;;2.90;;
35576;SDS011;21680;52.400;16.920;2022-10-16T15:32:16;5.10;;;2.40;;
35576;SDS011;21680;52.400;16.920;2022-10-16T15:34:41;5.50;;;3.00;;
35576;SDS011;21680;52.400;16.920;2022-10-16T15:37:08;7.40;;;2.90;;
35576;SDS011;21680;52.400;16.920;2022-10-16T15:39:33;6.30;;;2.90;;
35576;SDS011;21680;52.400;16.920;2022-10-16T15:41:58;6.70;;;3.20;;
35576;SDS011;21680;52.400;16.920;2022-10-16T15:44:23;5.90;;;3.50;;
35576;SDS011;21680;52.400;16.920;2022-10-16T15:46:51;6.00;;;3.30;;
35576;SDS011;21680;52.400;16.920;2022-10-16T15:49:19;6.40;;;2.80;;
35576;SDS011;21680;52.400;16.920;2022-10-16T15:51:44;6.80;;;3.10;;
35576;SDS011;21680;52.400;16.920;2022-10-16T15:54:09;4.70;;;3.20;;
35576;SDS011;21680;52.400;16.920;2022-10-16T15:56:35;4.80;;;3.30;;
35576;SDS011;21680;52.400;16.920;2022-10-16T15:59:02;6.10;;;3.60;;
35576;SDS011;21680;52.400;16.920;2022-10-16T16:01:28;8.00;;;3.60;;